createdAt,value
2023-04-17T00:00:44.263Z,89.65
2023-04-17T00:03:14.541Z,89.96
2023-04-17T00:05:45.723Z,89.91
2023-04-17T00:08:14.726Z,89.51
2023-04-17T00:10:45.517Z,90.19
2023-04-17T00:13:17.744Z,89.55
2023-04-17T00:15:46.468Z,89.85
2023-04-17T00:18:16.541Z,89.34
2023-04-17T00:20:45.383Z,89.37
2023-04-17T00:23:14.115Z,89.54
2023-04-17T00:25:42.824Z,89.75
2023-04-17T00:28:11.906Z,88.65
2023-04-17T00:30:42.631Z,88.70
2023-04-17T00:33:11.427Z,88.11
2023-04-17T00:35:41.636Z,88.93
2023-04-17T00:38:10.338Z,88.85
2023-04-17T00:40:39.070Z,89.27
2023-04-17T00:43:08.866Z,88.91
2023-04-17T00:45:37.736Z,89.69
2023-04-17T00:48:07.991Z,89.38
2023-04-17T00:50:38.129Z,89.69
2023-04-17T00:53:08.594Z,89.68
2023-04-17T00:55:39.972Z,89.61
2023-04-17T00:58:09.156Z,90.32
2023-04-17T01:00:38.060Z,91.30
2023-04-17T01:03:07.431Z,90.71
2023-04-17T01:05:38.459Z,90.14
2023-04-17T01:08:09.038Z,90.38
2023-04-17T01:10:37.798Z,89.59
2023-04-17T01:13:08.876Z,89.72
2023-04-17T01:15:40.332Z,89.48
2023-04-17T01:18:09.185Z,89.70
2023-04-17T01:20:38.246Z,89.58
2023-04-17T01:23:08.345Z,90.59
2023-04-17T01:25:38.583Z,89.55
2023-04-17T01:28:08.351Z,90.78
2023-04-17T01:30:37.080Z,91.37
2023-04-17T01:33:08.890Z,91.20
2023-04-17T01:35:38.328Z,91.21
2023-04-17T01:38:07.052Z,90.65
2023-04-17T01:40:37.453Z,91.30
2023-04-17T01:43:08.982Z,92.05
2023-04-17T01:45:38.847Z,90.93
2023-04-17T01:48:07.923Z,90.56
2023-04-17T01:50:36.715Z,90.75
2023-04-17T01:53:05.472Z,91.44
2023-04-17T01:55:34.812Z,91.37
2023-04-17T01:58:05.348Z,91.88
2023-04-17T02:00:34.238Z,92.58
2023-04-17T02:03:03.193Z,92.27
2023-04-17T02:05:32.032Z,92.57
2023-04-17T02:08:00.990Z,92.42
2023-04-17T02:10:29.631Z,91.95
2023-04-17T02:12:58.445Z,92.24
2023-04-17T02:15:29.475Z,92.51
2023-04-17T02:17:58.270Z,92.32
2023-04-17T02:20:27.135Z,92.42
2023-04-17T02:22:56.724Z,91.78
2023-04-17T02:25:25.753Z,92.49
2023-04-17T02:27:56.373Z,92.53
2023-04-17T02:30:25.880Z,93.45
2023-04-17T02:32:58.821Z,93.03
2023-04-17T02:35:32.134Z,92.32
2023-04-17T02:38:01.195Z,92.26
2023-04-17T02:40:29.984Z,92.14
2023-04-17T02:43:03.365Z,92.22
2023-04-17T02:45:32.403Z,92.84
2023-04-17T02:48:04.718Z,92.57
2023-04-17T02:50:34.106Z,92.92
2023-04-17T02:53:08.930Z,93.40
2023-04-17T02:55:37.952Z,92.75
2023-04-17T02:58:06.695Z,92.54
2023-04-17T03:00:35.672Z,92.65
2023-04-17T03:03:07.953Z,92.20
2023-04-17T03:05:37.151Z,91.64
2023-04-17T03:08:06.689Z,92.23
2023-04-17T03:10:43.680Z,92.50
2023-04-17T03:13:12.770Z,93.02
2023-04-17T03:15:41.600Z,92.89
2023-04-17T03:18:11.729Z,93.58
2023-04-17T03:20:40.421Z,93.62
2023-04-17T03:23:09.083Z,93.80
2023-04-17T03:25:38.101Z,93.11
2023-04-17T03:28:06.971Z,92.84
2023-04-17T03:30:35.760Z,93.07
2023-04-17T03:33:08.401Z,93.52
2023-04-17T03:35:38.583Z,93.63
2023-04-17T03:38:10.019Z,93.53
2023-04-17T03:40:39.165Z,93.76
2023-04-17T03:43:07.918Z,92.85
2023-04-17T03:45:37.238Z,92.97
2023-04-17T03:48:07.498Z,92.83
2023-04-17T03:50:40.029Z,92.82
2023-04-17T03:53:09.804Z,92.74
2023-04-17T03:55:39.177Z,92.18
2023-04-17T03:58:08.197Z,91.99
2023-04-17T04:00:37.452Z,92.02
2023-04-17T04:03:10.604Z,91.82
2023-04-17T04:05:44.520Z,91.83
2023-04-17T04:08:13.453Z,92.58
2023-04-17T04:10:51.855Z,91.55
2023-04-17T04:13:27.315Z,91.80
2023-04-17T04:16:01.398Z,92.80
2023-04-17T04:18:32.595Z,93.17
2023-04-17T04:21:03.114Z,94.06
2023-04-17T04:23:38.313Z,94.53
2023-04-17T04:26:07.936Z,94.65
2023-04-17T04:28:40.678Z,94.38
2023-04-17T04:31:18.898Z,94.63
2023-04-17T04:33:55.375Z,95.49
2023-04-17T04:36:30.331Z,95.86
2023-04-17T04:39:21.090Z,95.01
2023-04-17T04:41:53.451Z,95.00
2023-04-17T04:44:26.327Z,94.98
2023-04-17T04:47:03.236Z,95.53
2023-04-17T04:49:32.820Z,96.53
2023-04-17T04:52:03.986Z,96.67
2023-04-17T04:54:35.631Z,95.96
2023-04-17T04:57:06.362Z,96.66
2023-04-17T04:59:37.929Z,97.28
2023-04-17T05:02:27.398Z,96.86
2023-04-17T05:04:57.552Z,97.00
2023-04-17T05:07:28.543Z,96.86
2023-04-17T05:09:58.164Z,98.04
2023-04-17T05:12:27.387Z,97.63
2023-04-17T05:14:56.492Z,97.45
2023-04-17T05:17:25.254Z,97.61
2023-04-17T05:19:55.796Z,97.61
2023-04-17T05:22:27.713Z,98.13
2023-04-17T05:25:11.371Z,98.31
2023-04-17T05:27:40.213Z,99.10
2023-04-17T05:30:10.741Z,99.31
2023-04-17T05:32:43.416Z,100.00
2023-04-17T05:35:25.135Z,99.63
2023-04-17T05:37:56.191Z,100.00
2023-04-17T05:40:25.080Z,99.57
2023-04-17T05:42:53.831Z,99.22
2023-04-17T05:45:24.259Z,99.65
2023-04-17T05:47:54.395Z,99.84
2023-04-17T05:50:23.289Z,100.00
2023-04-17T05:52:52.065Z,99.89
2023-04-17T05:55:22.655Z,99.67
2023-04-17T05:57:58.143Z,99.84
2023-04-17T06:00:27.460Z,99.89
2023-04-17T06:03:01.511Z,99.19
2023-04-17T06:05:38.295Z,99.74
2023-04-17T06:08:07.134Z,99.52
2023-04-17T06:10:38.205Z,99.79
2023-04-17T06:13:06.916Z,100.00
2023-04-17T06:15:35.554Z,99.57
2023-04-17T06:18:05.172Z,100.00
2023-04-17T06:20:33.869Z,100.00
2023-04-17T06:23:04.465Z,100.00
2023-04-17T06:25:33.203Z,100.00
2023-04-17T06:28:05.276Z,100.00
2023-04-17T06:30:34.039Z,100.00
2023-04-17T06:33:04.345Z,100.00
2023-04-17T06:35:35.248Z,99.53
2023-04-17T06:38:14.435Z,99.18
2023-04-17T06:40:43.453Z,99.57
2023-04-17T06:43:16.678Z,98.78
2023-04-17T06:45:45.635Z,99.30
2023-04-17T06:48:14.326Z,99.09
2023-04-17T06:50:43.366Z,100.00
2023-04-17T06:53:12.078Z,100.00
2023-04-17T06:55:40.821Z,99.29
2023-04-17T06:58:10.276Z,99.82
2023-04-17T07:00:40.374Z,99.13
2023-04-17T07:03:09.528Z,98.42
2023-04-17T07:05:38.486Z,97.63
2023-04-17T07:08:07.568Z,96.94
2023-04-17T07:10:36.558Z,96.91
2023-04-17T07:13:05.254Z,97.19
2023-04-17T07:15:34.023Z,96.12
2023-04-17T07:18:04.304Z,96.03
2023-04-17T07:20:33.391Z,96.03
2023-04-17T07:23:02.089Z,96.03
2023-04-17T07:25:30.832Z,96.31
2023-04-17T07:27:59.561Z,96.38
2023-04-17T07:30:28.694Z,95.50
2023-04-17T07:32:57.594Z,94.84
2023-04-17T07:35:27.888Z,93.61
2023-04-17T07:37:59.108Z,94.74
2023-04-17T07:40:28.109Z,95.83
2023-04-17T07:42:56.962Z,95.84
2023-04-17T07:45:29.451Z,95.31
2023-04-17T07:47:58.309Z,94.76
2023-04-17T07:50:28.471Z,94.18
2023-04-17T07:52:57.932Z,95.06
2023-04-17T07:55:26.690Z,95.25
2023-04-17T07:57:55.370Z,94.93
2023-04-17T08:00:24.700Z,94.77
2023-04-17T08:02:53.677Z,94.61
2023-04-17T08:05:23.819Z,94.74
2023-04-17T08:07:54.041Z,94.38
2023-04-17T08:10:22.891Z,93.94
2023-04-17T08:12:51.864Z,93.91
2023-04-17T08:15:20.647Z,94.64
2023-04-17T08:17:49.437Z,94.22
2023-04-17T08:20:18.807Z,94.61
2023-04-17T08:22:48.654Z,94.85
2023-04-17T08:25:18.977Z,94.01
2023-04-17T08:27:47.704Z,93.75
2023-04-17T08:30:19.140Z,93.43
2023-04-17T08:32:50.838Z,93.74
2023-04-17T08:35:20.845Z,94.48
2023-04-17T08:37:49.757Z,96.18
2023-04-17T08:40:23.483Z,96.54
2023-04-17T08:42:54.025Z,96.40
2023-04-17T08:45:25.306Z,97.39
2023-04-17T08:47:54.215Z,97.94
2023-04-17T08:50:23.549Z,100.00
2023-04-17T08:52:53.358Z,100.00
2023-04-17T08:55:29.094Z,99.85
2023-04-17T08:58:04.029Z,100.00
2023-04-17T09:00:36.403Z,100.00
2023-04-17T09:03:08.835Z,98.27
2023-04-17T09:05:38.771Z,99.32
2023-04-17T09:08:14.473Z,98.10
2023-04-17T09:10:46.798Z,96.73
2023-04-17T09:13:17.558Z,95.16
2023-04-17T09:15:48.629Z,95.64
2023-04-17T09:18:26.939Z,93.85
2023-04-17T09:20:57.686Z,94.85
2023-04-17T09:23:27.314Z,92.63
2023-04-17T09:26:12.377Z,91.15
2023-04-17T09:28:43.780Z,90.03
2023-04-17T09:31:28.079Z,86.34
2023-04-17T09:34:01.624Z,89.45
2023-04-17T09:36:32.666Z,88.14
2023-04-17T09:39:04.593Z,89.23
2023-04-17T09:41:39.192Z,88.91
2023-04-17T09:44:10.015Z,88.69
2023-04-17T09:46:42.650Z,87.47
2023-04-17T09:49:34.088Z,88.44
2023-04-17T09:52:04.245Z,88.46
2023-04-17T09:54:38.165Z,88.05
2023-04-17T09:57:13.126Z,88.17
2023-04-17T09:59:45.475Z,88.37
2023-04-17T10:02:17.321Z,88.35
2023-04-17T10:04:48.097Z,87.95
2023-04-17T10:07:18.010Z,88.28
2023-04-17T10:09:48.237Z,88.74
2023-04-17T10:12:21.621Z,88.51
2023-04-17T10:14:53.545Z,88.57
2023-04-17T10:17:31.940Z,88.59
2023-04-17T10:20:36.626Z,87.89
2023-04-17T10:23:32.784Z,87.38
2023-04-17T10:26:46.548Z,88.58
2023-04-17T10:29:16.804Z,88.20
2023-04-17T10:32:17.968Z,89.10
2023-04-17T10:34:47.062Z,88.49
2023-04-17T10:37:16.667Z,87.82
2023-04-17T10:39:55.486Z,89.50
2023-04-17T10:42:25.811Z,88.44
2023-04-17T10:45:05.516Z,87.38
2023-04-17T10:47:36.319Z,88.68
2023-04-17T10:50:10.780Z,86.91
2023-04-17T10:52:45.073Z,88.10
2023-04-17T10:55:18.337Z,87.79
2023-04-17T10:58:01.190Z,89.51
2023-04-17T11:00:34.378Z,87.91
2023-04-17T11:03:04.387Z,85.92
2023-04-17T11:05:35.707Z,86.24
2023-04-17T11:08:04.700Z,86.01
2023-04-17T11:10:38.746Z,83.98
2023-04-17T11:13:07.556Z,85.73
2023-04-17T11:15:39.161Z,86.03
2023-04-17T11:18:08.493Z,85.18
2023-04-17T11:21:06.374Z,85.51
2023-04-17T11:24:24.149Z,84.90
2023-04-17T11:27:04.177Z,83.85
2023-04-17T11:29:43.419Z,84.47
2023-04-17T11:32:30.798Z,85.41
2023-04-17T11:35:09.498Z,81.69
2023-04-17T11:41:03.238Z,84.33
2023-04-17T11:44:07.919Z,84.39
2023-04-17T11:46:45.213Z,84.28
2023-04-17T11:49:19.456Z,83.69
2023-04-17T11:51:53.949Z,83.79
2023-04-17T11:54:30.333Z,82.30
2023-04-17T11:57:04.453Z,81.89
2023-04-17T11:59:35.939Z,83.54
2023-04-17T12:02:09.030Z,83.21
2023-04-17T12:04:40.870Z,83.29
2023-04-17T12:07:24.485Z,82.19
2023-04-17T12:09:58.714Z,79.44
2023-04-17T12:12:29.278Z,82.24
2023-04-17T12:15:03.857Z,82.12
2023-04-17T12:17:52.222Z,82.08
2023-04-17T12:20:31.650Z,81.40
2023-04-17T12:23:06.449Z,80.54
2023-04-17T12:25:57.370Z,80.62
2023-04-17T12:28:47.720Z,82.11
2023-04-17T12:31:39.264Z,82.29
2023-04-17T12:34:15.118Z,79.60
2023-04-17T12:36:56.467Z,78.34
2023-04-17T12:39:47.145Z,80.69
2023-04-17T12:42:26.787Z,78.73
2023-04-17T12:45:13.427Z,79.49
2023-04-17T12:47:52.822Z,81.00
2023-04-17T12:51:01.977Z,80.90
2023-04-17T12:53:57.346Z,78.55
2023-04-17T12:56:44.554Z,79.76
2023-04-17T12:59:24.254Z,80.29
2023-04-17T13:02:04.020Z,80.43
2023-04-17T13:05:12.480Z,78.60
2023-04-17T13:07:48.345Z,78.34
2023-04-17T13:10:53.100Z,79.62
2023-04-17T13:17:17.160Z,79.90
2023-04-17T13:19:47.542Z,79.18
2023-04-17T13:22:30.472Z,78.88
2023-04-17T13:25:19.711Z,79.21
2023-04-17T13:28:36.902Z,77.27
2023-04-17T13:31:31.493Z,76.84
2023-04-17T13:34:10.028Z,77.52
2023-04-17T13:37:15.886Z,78.68
2023-04-17T13:40:04.048Z,77.74
2023-04-17T13:43:09.142Z,77.25
2023-04-17T13:46:21.892Z,77.90
2023-04-17T13:49:29.070Z,77.17
2023-04-17T13:52:18.464Z,77.23
2023-04-17T13:54:48.874Z,77.22
2023-04-17T13:57:22.173Z,76.14
2023-04-17T14:00:59.515Z,76.86
2023-04-17T14:03:47.871Z,76.77
2023-04-17T14:06:50.889Z,77.88
2023-04-17T14:09:27.578Z,77.03
2023-04-17T14:12:03.480Z,77.12
2023-04-17T14:15:00.181Z,76.53
2023-04-17T14:17:33.752Z,77.92
2023-04-17T14:20:20.849Z,76.86
2023-04-17T14:22:57.160Z,77.18
2023-04-17T14:25:28.742Z,78.02
2023-04-17T14:27:57.703Z,75.87
2023-04-17T14:30:27.046Z,76.73
2023-04-17T14:32:55.833Z,77.20
2023-04-17T14:35:26.292Z,77.19
2023-04-17T14:37:55.190Z,77.30
2023-04-17T14:40:24.595Z,76.24
2023-04-17T14:42:54.764Z,75.50
2023-04-17T14:45:23.827Z,75.33
2023-04-17T14:47:54.821Z,74.67
2023-04-17T14:50:25.226Z,74.41
2023-04-17T14:52:55.801Z,74.38
2023-04-17T14:55:26.285Z,74.18
2023-04-17T14:57:55.678Z,73.97
2023-04-17T15:00:26.249Z,74.15
2023-04-17T15:02:58.999Z,71.50
2023-04-17T15:05:31.029Z,71.82
2023-04-17T15:08:04.003Z,73.03
2023-04-17T15:10:44.326Z,73.76
2023-04-17T15:13:22.561Z,74.35
2023-04-17T15:15:53.524Z,73.72
2023-04-17T15:18:22.974Z,72.67
2023-04-17T15:20:56.199Z,74.73
2023-04-17T15:23:28.903Z,74.32
2023-04-17T15:25:58.716Z,73.67
2023-04-17T15:28:29.077Z,72.70
2023-04-17T15:30:59.031Z,73.01
2023-04-17T15:33:29.019Z,73.27
2023-04-17T15:36:02.406Z,72.88
2023-04-17T15:38:31.791Z,72.34
2023-04-17T15:41:01.985Z,73.31
2023-04-17T15:43:33.007Z,72.25
2023-04-17T15:46:10.359Z,72.01
2023-04-17T15:49:13.137Z,72.63
2023-04-17T15:51:43.989Z,72.16
2023-04-17T15:54:14.648Z,72.57
2023-04-17T15:56:44.567Z,71.83
2023-04-17T15:59:51.073Z,71.67
2023-04-17T16:02:33.159Z,72.20
2023-04-17T16:05:04.646Z,72.48
2023-04-17T16:07:35.100Z,73.62
2023-04-17T16:10:04.017Z,74.70
2023-04-17T16:12:32.767Z,73.76
2023-04-17T16:15:12.745Z,74.46
2023-04-17T16:17:43.468Z,73.49
2023-04-17T16:20:13.885Z,74.61
2023-04-17T16:22:45.239Z,73.97
2023-04-17T16:25:17.173Z,74.60
2023-04-17T16:27:48.275Z,74.42
2023-04-17T16:30:17.496Z,75.41
2023-04-17T16:32:48.933Z,73.78
2023-04-17T16:35:19.909Z,74.98
2023-04-17T16:37:51.898Z,74.70
2023-04-17T16:40:22.784Z,75.06
2023-04-17T16:42:55.458Z,74.84
2023-04-17T16:45:26.013Z,74.61
2023-04-17T16:47:55.757Z,75.01
2023-04-17T16:50:26.017Z,75.52
2023-04-17T16:52:56.857Z,75.49
2023-04-17T16:55:26.615Z,76.55
2023-04-17T16:57:58.523Z,76.13
2023-04-17T17:00:27.610Z,76.11
2023-04-17T17:02:57.551Z,76.06
2023-04-17T17:05:27.106Z,76.51
2023-04-17T17:07:57.328Z,76.29
2023-04-17T17:10:26.188Z,76.92
2023-04-17T17:12:55.239Z,76.38
2023-04-17T17:15:24.216Z,76.14
2023-04-17T17:17:52.956Z,77.19
2023-04-17T17:20:21.683Z,77.78
2023-04-17T17:22:51.524Z,75.97
2023-04-17T17:25:23.072Z,75.98
2023-04-17T17:27:52.186Z,76.59
2023-04-17T17:30:21.121Z,75.64
2023-04-17T17:32:50.051Z,75.66
2023-04-17T17:35:19.031Z,74.66
2023-04-17T17:37:47.976Z,74.82
2023-04-17T17:40:17.360Z,74.99
2023-04-17T17:42:47.829Z,75.45
2023-04-17T17:45:16.625Z,74.79
2023-04-17T17:47:45.349Z,76.46
2023-04-17T17:50:14.140Z,76.84
2023-04-17T17:52:42.884Z,76.22
2023-04-17T17:55:16.001Z,76.98
2023-04-17T17:57:49.280Z,77.97
2023-04-17T18:00:19.348Z,78.29
2023-04-17T18:02:48.485Z,78.70
2023-04-17T18:05:17.351Z,79.72
2023-04-17T18:07:46.059Z,80.51
2023-04-17T18:10:15.255Z,81.48
2023-04-17T18:12:43.963Z,81.66
2023-04-17T18:15:14.889Z,81.56
2023-04-17T18:17:43.764Z,81.50
2023-04-17T18:20:15.058Z,82.00
2023-04-17T18:22:44.276Z,83.77
2023-04-17T18:25:13.723Z,84.52
2023-04-17T18:27:42.716Z,85.45
2023-04-17T18:30:17.306Z,84.34
2023-04-17T18:32:46.625Z,81.87
2023-04-17T18:35:16.462Z,83.10
2023-04-17T18:37:45.902Z,81.75
2023-04-17T18:40:17.693Z,81.04
2023-04-17T18:42:46.533Z,80.99
2023-04-17T18:45:17.127Z,80.89
2023-04-17T18:47:46.138Z,80.94
2023-04-17T18:50:17.313Z,81.02
2023-04-17T18:52:50.449Z,80.73
2023-04-17T18:55:21.571Z,80.81
2023-04-17T18:57:51.522Z,80.73
2023-04-17T19:00:21.958Z,81.13
2023-04-17T19:02:54.058Z,80.93
2023-04-17T19:05:23.378Z,81.03
2023-04-17T19:07:52.369Z,81.47
2023-04-17T19:10:23.169Z,81.74
2023-04-17T19:13:09.858Z,82.23
2023-04-17T19:15:42.190Z,81.90
2023-04-17T19:18:13.178Z,81.93
2023-04-17T19:20:42.833Z,82.83
2023-04-17T19:23:12.587Z,82.92
2023-04-17T19:26:07.174Z,82.53
2023-04-17T19:28:37.024Z,82.91
2023-04-17T19:31:07.225Z,82.78
2023-04-17T19:33:36.111Z,82.49
2023-04-17T19:36:05.037Z,82.59
2023-04-17T19:38:33.899Z,83.12
2023-04-17T19:41:17.802Z,82.87
2023-04-17T19:43:47.262Z,83.08
2023-04-17T19:46:18.817Z,82.86
2023-04-17T19:48:50.916Z,82.71
2023-04-17T19:51:20.378Z,82.85
2023-04-17T19:53:50.588Z,82.64
2023-04-17T19:56:19.668Z,82.39
2023-04-17T19:58:48.901Z,82.15
2023-04-17T20:01:19.595Z,81.96
2023-04-17T20:03:49.455Z,82.00
2023-04-17T20:06:18.310Z,82.05
2023-04-17T20:08:47.158Z,82.30
2023-04-17T20:11:17.968Z,82.63
2023-04-17T20:13:48.369Z,83.25
2023-04-17T20:16:18.586Z,83.27
2023-04-17T20:18:47.310Z,82.67
2023-04-17T20:21:16.003Z,82.73
2023-04-17T20:23:55.838Z,82.98
2023-04-17T20:26:24.555Z,82.50
2023-04-17T20:28:54.795Z,82.50
2023-04-17T20:31:25.072Z,82.66
2023-04-17T20:33:53.931Z,82.42
2023-04-17T20:36:22.734Z,82.09
2023-04-17T20:38:52.713Z,82.43
2023-04-17T20:41:21.561Z,83.33
2023-04-17T20:43:59.090Z,84.16
2023-04-17T20:46:30.156Z,83.75
2023-04-17T20:48:58.862Z,84.25
2023-04-17T20:51:28.538Z,84.21
2023-04-17T20:53:57.346Z,84.33
2023-04-17T20:56:26.131Z,84.98
2023-04-17T20:58:54.970Z,85.95
2023-04-17T21:01:23.896Z,86.04
2023-04-17T21:03:54.128Z,86.31
2023-04-17T21:06:24.438Z,86.33
2023-04-17T21:08:53.186Z,87.04
2023-04-17T21:11:22.482Z,86.04
2023-04-17T21:13:51.292Z,86.15
2023-04-17T21:16:21.306Z,86.16
2023-04-17T21:18:50.163Z,86.54
2023-04-17T21:21:20.271Z,87.21
2023-04-17T21:23:49.047Z,86.80
2023-04-17T21:26:18.758Z,86.75
2023-04-17T21:28:47.424Z,86.10
2023-04-17T21:31:16.442Z,86.42
2023-04-17T21:33:45.368Z,86.64
2023-04-17T21:36:15.281Z,86.45
2023-04-17T21:38:46.433Z,86.38
2023-04-17T21:41:15.185Z,86.75
2023-04-17T21:43:43.955Z,86.82
2023-04-17T21:46:13.344Z,86.94
2023-04-17T21:48:42.065Z,86.59
2023-04-17T21:51:10.790Z,86.54
2023-04-17T21:53:39.534Z,86.51
2023-04-17T21:56:10.480Z,86.98
2023-04-17T21:58:39.312Z,86.93
2023-04-17T22:01:08.532Z,87.55
2023-04-17T22:03:37.329Z,87.29
2023-04-17T22:06:06.575Z,88.20
2023-04-17T22:08:35.293Z,87.66
2023-04-17T22:11:05.429Z,87.90
2023-04-17T22:13:35.577Z,87.96
2023-04-17T22:16:04.726Z,88.23
2023-04-17T22:18:33.521Z,89.07
2023-04-17T22:21:02.225Z,88.74
2023-04-17T22:23:30.984Z,88.67
2023-04-17T22:25:59.820Z,88.81
2023-04-17T22:28:31.397Z,89.05
2023-04-17T22:31:01.661Z,88.73
2023-04-17T22:33:30.434Z,89.78
2023-04-17T22:35:59.089Z,88.59
2023-04-17T22:38:27.868Z,88.99
2023-04-17T22:40:56.945Z,88.66
2023-04-17T22:43:25.630Z,89.47
2023-04-17T22:45:54.405Z,90.17
2023-04-17T22:48:24.854Z,90.12
2023-04-17T22:50:53.656Z,90.27
2023-04-17T22:53:22.535Z,89.97
2023-04-17T22:56:02.206Z,90.23
2023-04-17T22:58:34.749Z,90.11
2023-04-17T23:01:04.112Z,89.92
2023-04-17T23:03:35.806Z,90.07
2023-04-17T23:06:05.322Z,89.92
2023-04-17T23:08:34.260Z,90.38
2023-04-17T23:11:04.939Z,90.26
2023-04-17T23:13:33.744Z,90.25
2023-04-17T23:16:02.603Z,90.01
2023-04-17T23:18:31.315Z,90.75
2023-04-17T23:21:01.332Z,91.27
2023-04-17T23:23:30.059Z,90.76
2023-04-17T23:25:58.690Z,91.33
2023-04-17T23:28:30.584Z,91.12
2023-04-17T23:30:59.596Z,91.25
2023-04-17T23:33:28.284Z,91.47
2023-04-17T23:35:56.967Z,92.27
2023-04-17T23:38:27.089Z,91.98
2023-04-17T23:40:56.118Z,92.14
2023-04-17T23:43:24.851Z,92.04
2023-04-17T23:45:53.612Z,91.53
2023-04-17T23:48:23.182Z,91.13
2023-04-17T23:50:52.122Z,92.14
2023-04-17T23:53:21.108Z,91.34
2023-04-17T23:55:51.205Z,92.64
2023-04-17T23:58:19.822Z,91.86
